createdAt,value
2019-03-13T00:02:38.783Z,5.50
2019-03-13T00:11:10.905Z,5.50
2019-03-13T00:14:00.084Z,5.50
2019-03-13T00:16:43.430Z,5.50
2019-03-13T00:19:27.663Z,5.50
2019-03-13T00:25:30.306Z,5.50
2019-03-13T00:31:00.924Z,5.50
2019-03-13T00:33:45.015Z,5.50
2019-03-13T00:36:28.359Z,5.50
2019-03-13T00:39:17.581Z,5.50
2019-03-13T00:42:02.172Z,5.50
2019-03-13T00:47:26.439Z,5.60
2019-03-13T00:50:09.941Z,5.50
2019-03-13T00:55:40.874Z,5.50
2019-03-13T00:58:31.502Z,5.50
2019-03-13T01:01:35.395Z,5.50
2019-03-13T01:07:05.556Z,5.40
2019-03-13T01:13:05.639Z,5.30
2019-03-13T01:15:49.272Z,5.30
2019-03-13T01:21:32.848Z,5.40
2019-03-13T01:24:21.176Z,5.40
2019-03-13T01:27:09.998Z,5.50
2019-03-13T01:29:58.913Z,5.50
2019-03-13T01:36:08.301Z,5.50
2019-03-13T01:38:52.256Z,5.60
2019-03-13T01:47:09.072Z,5.70
2019-03-13T01:49:57.002Z,5.60
2019-03-13T01:55:42.927Z,5.60
2019-03-13T01:58:17.437Z,5.50
2019-03-13T02:00:48.554Z,5.50
2019-03-13T02:06:33.303Z,5.60
2019-03-13T02:09:15.030Z,5.50
2019-03-13T02:12:00.504Z,5.60
2019-03-13T02:14:45.151Z,5.60
2019-03-13T02:17:17.517Z,5.60
2019-03-13T02:20:00.835Z,5.60
2019-03-13T02:22:44.106Z,5.60
2019-03-13T02:25:27.820Z,5.50
2019-03-13T02:28:11.165Z,5.60
2019-03-13T02:30:53.830Z,5.60
2019-03-13T02:33:36.897Z,5.60
2019-03-13T02:36:20.380Z,5.70
2019-03-13T02:39:06.448Z,5.70
2019-03-13T02:41:54.592Z,5.70
2019-03-13T02:44:37.461Z,5.80
2019-03-13T02:50:17.070Z,5.80
2019-03-13T02:53:00.493Z,5.70
2019-03-13T02:55:43.852Z,5.70
2019-03-13T02:58:16.654Z,5.70
2019-03-13T03:01:28.590Z,5.70
2019-03-13T03:04:14.904Z,5.70
2019-03-13T03:07:02.207Z,5.80
2019-03-13T03:09:46.003Z,5.70
2019-03-13T03:12:29.542Z,5.80
2019-03-13T03:15:13.031Z,5.80
2019-03-13T03:17:57.018Z,5.70
2019-03-13T03:20:40.254Z,5.70
2019-03-13T03:23:12.638Z,5.60
2019-03-13T03:29:07.463Z,5.70
2019-03-13T03:31:39.697Z,5.60
2019-03-13T03:34:23.107Z,5.70
2019-03-13T03:39:52.556Z,5.70
2019-03-13T03:42:36.781Z,5.60
2019-03-13T03:45:20.241Z,5.60
2019-03-13T03:48:03.876Z,5.60
2019-03-13T03:50:47.020Z,5.60
2019-03-13T03:53:35.110Z,5.70
2019-03-13T03:56:19.238Z,5.80
2019-03-13T03:59:05.060Z,5.80
2019-03-13T04:01:52.931Z,5.90
2019-03-13T04:07:18.165Z,6.00
2019-03-13T04:12:46.063Z,6.10
2019-03-13T04:15:30.281Z,6.10
2019-03-13T04:18:14.173Z,6.10
2019-03-13T04:20:57.507Z,6.10
2019-03-13T04:26:36.566Z,6.20
2019-03-13T04:29:20.601Z,6.20
2019-03-13T04:37:39.841Z,6.20
2019-03-13T04:40:28.446Z,6.30
2019-03-13T04:43:12.543Z,6.30
2019-03-13T04:51:34.770Z,6.40
2019-03-13T04:54:18.306Z,6.40
2019-03-13T04:57:01.472Z,6.40
2019-03-13T04:59:49.442Z,6.40
2019-03-13T05:02:33.030Z,6.40
2019-03-13T05:05:17.489Z,6.40
2019-03-13T05:07:50.632Z,6.40
2019-03-13T05:13:34.044Z,6.50
2019-03-13T05:16:18.505Z,6.50
2019-03-13T05:19:03.768Z,6.60
2019-03-13T05:21:47.772Z,6.60
2019-03-13T05:27:28.115Z,6.60
2019-03-13T05:30:12.314Z,6.70
2019-03-13T05:32:43.790Z,6.60
2019-03-13T05:35:27.321Z,6.60
2019-03-13T05:37:59.652Z,6.70
2019-03-13T05:40:45.059Z,6.70
2019-03-13T05:43:16.487Z,6.70
2019-03-13T05:46:00.265Z,6.70
2019-03-13T05:48:49.558Z,6.70
2019-03-13T05:51:41.131Z,6.70
2019-03-13T05:54:24.245Z,6.70
2019-03-13T06:00:08.026Z,6.70
2019-03-13T06:02:53.917Z,6.70
2019-03-13T06:06:01.610Z,6.70
2019-03-13T06:12:15.936Z,6.70
2019-03-13T06:15:04.690Z,6.70
2019-03-13T06:17:50.456Z,6.80
2019-03-13T06:20:34.411Z,6.80
2019-03-13T06:23:18.088Z,6.80
2019-03-13T06:26:06.567Z,6.70
2019-03-13T06:28:54.238Z,6.70
2019-03-13T06:31:27.534Z,6.70
2019-03-13T06:37:26.598Z,6.70
2019-03-13T06:40:10.375Z,6.30
2019-03-13T06:42:57.507Z,6.10
2019-03-13T06:45:40.911Z,6.10
2019-03-13T06:48:28.244Z,6.10
2019-03-13T06:51:14.760Z,6.20
2019-03-13T06:56:45.516Z,6.30
2019-03-13T06:59:33.397Z,6.40
2019-03-13T07:14:26.046Z,6.10
2019-03-13T07:17:17.302Z,6.10
2019-03-13T07:23:03.737Z,6.30
2019-03-13T07:25:57.584Z,6.40
2019-03-13T07:29:18.707Z,6.50
2019-03-13T07:32:08.761Z,6.50
2019-03-13T07:41:27.592Z,6.00
2019-03-13T07:50:22.688Z,6.20
2019-03-13T07:53:28.406Z,6.30
2019-03-13T07:59:19.933Z,6.50
2019-03-13T08:02:18.612Z,6.60
2019-03-13T08:09:25.486Z,6.70
2019-03-13T08:11:44.259Z,6.80
2019-03-13T08:14:47.347Z,6.80
2019-03-13T08:21:01.636Z,6.90
2019-03-13T08:23:49.743Z,7.00
2019-03-13T08:30:29.652Z,7.10
2019-03-13T08:36:27.746Z,7.10
2019-03-13T08:42:03.449Z,7.00
2019-03-13T08:45:09.537Z,7.00
2019-03-13T08:48:03.466Z,6.90
2019-03-13T08:50:55.387Z,7.00
2019-03-13T08:56:53.074Z,7.30
2019-03-13T09:00:14.415Z,7.30
2019-03-13T09:06:22.506Z,7.40
2019-03-13T09:09:06.012Z,7.40
2019-03-13T09:11:54.907Z,7.30
2019-03-13T09:15:01.363Z,7.10
2019-03-13T09:18:08.236Z,6.60
2019-03-13T09:24:10.362Z,6.10
2019-03-13T09:27:17.536Z,6.10
2019-03-13T09:30:29.509Z,6.10
2019-03-13T09:33:38.274Z,6.10
2019-03-13T09:39:12.202Z,5.90
2019-03-13T09:45:07.033Z,5.80
2019-03-13T09:47:59.781Z,5.90
2019-03-13T09:51:03.433Z,6.00
2019-03-13T09:53:48.959Z,6.10
2019-03-13T10:05:57.692Z,6.60
2019-03-13T10:11:49.395Z,6.80
2019-03-13T10:14:53.253Z,6.80
2019-03-13T10:17:41.750Z,6.80
2019-03-13T10:20:48.453Z,6.70
2019-03-13T10:23:49.978Z,6.80
2019-03-13T10:26:50.767Z,6.90
2019-03-13T10:29:54.214Z,7.00
2019-03-13T10:38:16.340Z,7.20
2019-03-13T10:47:16.189Z,7.20
2019-03-13T10:50:03.161Z,7.20
2019-03-13T10:53:14.496Z,7.20
2019-03-13T11:01:59.921Z,7.60
2019-03-13T11:08:02.255Z,7.70
2019-03-13T11:10:58.533Z,7.80
2019-03-13T11:14:14.848Z,7.90
2019-03-13T11:17:12.823Z,7.90
2019-03-13T11:20:03.342Z,7.90
2019-03-13T11:23:07.842Z,7.80
2019-03-13T11:29:08.584Z,7.90
2019-03-13T11:32:12.625Z,7.90
2019-03-13T11:35:19.962Z,7.80
2019-03-13T11:38:22.637Z,7.70
2019-03-13T11:49:57.717Z,7.80
2019-03-13T11:55:45.292Z,7.90
2019-03-13T11:58:47.164Z,7.90
2019-03-13T12:04:34.601Z,7.90
2019-03-13T12:07:37.927Z,7.90
2019-03-13T12:10:26.700Z,8.00
2019-03-13T12:16:23.072Z,8.00
2019-03-13T12:19:13.580Z,7.80
2019-03-13T12:25:15.547Z,7.20
2019-03-13T12:33:59.677Z,7.00
2019-03-13T12:37:06.580Z,7.00
2019-03-13T12:48:58.642Z,6.80
2019-03-13T12:54:29.833Z,6.70
2019-03-13T12:57:32.048Z,6.70
2019-03-13T13:09:41.179Z,6.70
2019-03-13T13:12:25.955Z,6.70
2019-03-13T13:18:35.003Z,6.90
2019-03-13T13:24:07.703Z,7.30
2019-03-13T13:26:51.174Z,7.30
2019-03-13T13:29:36.469Z,7.30
2019-03-13T13:32:22.837Z,7.20
2019-03-13T13:37:53.811Z,7.00
2019-03-13T13:40:40.939Z,6.90
2019-03-13T13:43:30.774Z,6.90
2019-03-13T13:49:12.835Z,7.10
2019-03-13T13:54:45.866Z,7.10
2019-03-13T14:00:16.797Z,6.80
2019-03-13T14:11:43.116Z,6.80
2019-03-13T14:14:26.455Z,7.00
2019-03-13T14:20:13.893Z,7.10
2019-03-13T14:23:01.568Z,7.10
2019-03-13T14:25:45.499Z,7.20
2019-03-13T14:28:32.414Z,7.40
2019-03-13T14:34:05.973Z,7.40
2019-03-13T14:36:38.244Z,7.50
2019-03-13T14:42:15.814Z,7.50
2019-03-13T14:44:59.968Z,7.40
2019-03-13T14:47:37.735Z,7.30
2019-03-13T14:50:21.055Z,7.10
2019-03-13T14:55:56.780Z,6.70
2019-03-13T14:58:47.617Z,6.70
2019-03-13T15:04:38.335Z,6.70
2019-03-13T15:10:09.698Z,6.70
2019-03-13T15:15:29.272Z,6.70
2019-03-13T15:17:59.929Z,6.60
2019-03-13T15:20:47.414Z,6.60
2019-03-13T16:10:27.405Z,6.40
2019-03-13T16:13:19.208Z,6.50
2019-03-13T16:33:49.971Z,6.10
2019-03-13T16:36:34.345Z,6.00
2019-03-13T16:39:20.004Z,5.90
2019-03-13T16:42:02.336Z,5.90
2019-03-13T16:47:50.462Z,5.80
2019-03-13T16:50:34.683Z,5.80
2019-03-13T16:56:04.833Z,5.80
2019-03-13T16:58:50.600Z,5.80
2019-03-13T17:01:40.031Z,5.90
2019-03-13T17:04:24.819Z,5.90
2019-03-13T17:07:10.985Z,6.00
2019-03-13T17:09:55.484Z,6.00
2019-03-13T17:12:31.463Z,6.00
2019-03-13T17:15:04.394Z,6.00
2019-03-13T17:17:57.846Z,6.00
2019-03-13T17:20:50.789Z,5.90
2019-03-13T17:23:34.039Z,5.80
2019-03-13T17:26:17.421Z,5.80
2019-03-13T17:29:12.350Z,5.90
2019-03-13T17:32:16.810Z,6.00
2019-03-13T17:37:52.919Z,6.00
2019-03-13T17:40:37.679Z,6.10
2019-03-13T17:43:23.138Z,6.10
2019-03-13T17:46:07.390Z,6.20
2019-03-13T17:48:54.092Z,6.20
2019-03-13T17:51:38.331Z,6.30
2019-03-13T17:57:18.052Z,6.30
2019-03-13T18:02:48.719Z,6.20
2019-03-13T18:05:36.851Z,6.20
2019-03-13T18:08:19.354Z,6.20
2019-03-13T18:11:02.344Z,6.20
2019-03-13T18:13:45.835Z,6.30
2019-03-13T18:19:45.562Z,6.30
2019-03-13T18:34:23.768Z,6.30
2019-03-13T18:37:16.374Z,6.30
2019-03-13T18:40:21.422Z,6.30
2019-03-13T18:43:07.765Z,6.40
2019-03-13T18:45:52.162Z,6.50
2019-03-13T18:48:39.723Z,6.40
2019-03-13T18:54:19.909Z,6.50
2019-03-13T18:57:03.886Z,6.60
2019-03-13T18:59:47.644Z,6.50
2019-03-13T19:02:34.850Z,6.60
2019-03-13T19:05:18.518Z,6.60
2019-03-13T19:08:02.299Z,6.50
2019-03-13T19:10:51.583Z,6.50
2019-03-13T19:13:41.041Z,6.40
2019-03-13T19:16:30.687Z,6.40
2019-03-13T19:19:14.753Z,6.40
2019-03-13T19:24:59.523Z,6.30
2019-03-13T19:27:43.396Z,6.30
2019-03-13T19:30:31.638Z,6.20
2019-03-13T19:33:25.415Z,6.20
2019-03-13T19:36:14.911Z,6.20
2019-03-13T19:38:58.868Z,6.10
2019-03-13T19:41:42.122Z,6.10
2019-03-13T19:44:27.435Z,6.10
2019-03-13T19:47:19.604Z,6.20
2019-03-13T19:49:53.968Z,6.20
2019-03-13T19:52:40.780Z,6.10
2019-03-13T19:55:25.329Z,6.10
2019-03-13T19:58:09.994Z,6.10
2019-03-13T20:00:59.067Z,6.20
2019-03-13T20:03:54.588Z,6.10
2019-03-13T20:06:41.422Z,6.10
2019-03-13T20:09:14.410Z,6.00
2019-03-13T20:12:00.181Z,5.90
2019-03-13T20:14:44.357Z,5.80
2019-03-13T20:17:34.718Z,5.90
2019-03-13T20:20:19.997Z,5.90
2019-03-13T20:22:53.227Z,5.90
2019-03-13T20:25:38.276Z,6.00
2019-03-13T20:28:22.116Z,6.00
2019-03-13T20:31:06.456Z,6.00
2019-03-13T20:33:54.400Z,5.90
2019-03-13T20:39:23.208Z,5.90
2019-03-13T20:42:13.750Z,5.90
2019-03-13T20:44:57.875Z,5.80
2019-03-13T20:47:41.197Z,5.80
2019-03-13T20:50:14.090Z,5.80
2019-03-13T20:58:24.807Z,5.70
2019-03-13T21:00:55.902Z,5.80
2019-03-13T21:03:42.074Z,5.90
2019-03-13T21:06:32.971Z,5.90
2019-03-13T21:09:19.033Z,5.80
2019-03-13T21:12:07.303Z,5.80
2019-03-13T21:16:01.226Z,5.80
2019-03-13T21:18:06.248Z,5.80
2019-03-13T21:20:50.745Z,5.70
2019-03-13T21:23:37.788Z,5.90
2019-03-13T21:26:25.660Z,5.90
2019-03-13T21:29:09.817Z,5.90
2019-03-13T21:31:53.668Z,5.90
2019-03-13T21:34:38.479Z,5.90
2019-03-13T21:37:22.717Z,5.90
2019-03-13T21:40:08.308Z,5.90
2019-03-13T21:42:55.876Z,5.90
2019-03-13T21:45:42.975Z,5.90
2019-03-13T21:48:26.759Z,5.80
2019-03-13T21:51:11.919Z,5.90
2019-03-13T21:53:58.984Z,5.80
2019-03-13T21:56:45.629Z,5.90
2019-03-13T21:59:32.032Z,5.90
2019-03-13T22:02:32.352Z,5.90
2019-03-13T22:05:25.140Z,5.90
2019-03-13T22:07:46.990Z,5.90
2019-03-13T22:10:31.193Z,5.80
2019-03-13T22:16:17.868Z,5.90
2019-03-13T22:19:08.219Z,5.90
2019-03-13T22:21:53.229Z,6.00
2019-03-13T22:24:41.246Z,5.90
2019-03-13T22:27:26.118Z,6.00
2019-03-13T22:30:11.340Z,5.90
2019-03-13T22:32:56.561Z,5.80
2019-03-13T22:35:44.795Z,5.70
2019-03-13T22:38:28.697Z,5.70
2019-03-13T22:41:16.005Z,5.70
2019-03-13T22:44:07.356Z,5.70
2019-03-13T22:46:52.812Z,5.80
2019-03-13T22:49:41.074Z,5.90
2019-03-13T22:55:59.886Z,5.90
2019-03-13T22:58:41.121Z,5.80
2019-03-13T23:01:29.714Z,5.80
2019-03-13T23:04:15.935Z,5.80
2019-03-13T23:07:33.577Z,5.90
2019-03-13T23:10:17.272Z,5.90
2019-03-13T23:13:07.242Z,6.00
2019-03-13T23:19:25.798Z,6.10
2019-03-13T23:25:15.141Z,6.00
2019-03-13T23:28:03.901Z,6.10
2019-03-13T23:30:48.190Z,6.10
2019-03-13T23:33:36.483Z,6.20
2019-03-13T23:39:28.922Z,6.30
2019-03-13T23:42:13.050Z,6.30
2019-03-13T23:44:58.775Z,6.30
2019-03-13T23:47:43.830Z,6.30
2019-03-13T23:50:27.754Z,6.30
2019-03-13T23:53:11.754Z,6.30
2019-03-13T23:59:02.654Z,6.40
